ES-0249 weather

Beuda Besalu Private Airstrip
Catalonia, Spain

Public forecast

Using degrees Celsius for public forecast. Weather courtesy of forecast.io.

Closest aviation weather report (METAR) to Beuda Besalu Private Airstrip

Closest report is Girona Airport, 18.8 nm (34.8 km) S. Retrieved 2020/08/07 14:30 UTC (7 minutes ago):

LEGE 071430Z 17009KT 120V220 CAVOK 33/19 Q1017

Closest aviation forecast (TAF) to Beuda Besalu Private Airstrip

Closest forecast is Girona Airport, 18.8 nm (34.8 km) S. Retrieved 2020/08/07 12:27 UTC (2 hours ago):

TAF LEGE 071100Z 0712/0812 18010KT 9999 FEW040 TX36/0713Z TN18/0805Z BECMG 0718/0720 VRB03KT